.
WxDataArchive / Data Records for 2008-05-24
2008-05-23 May 2008 2008-05-25

Data Records for Saturday, 24 May 2008

Time	Temp	Chill	HIndex	Humid	Dewpt	 Wind 	HiWind	WindDir	Rain 	Barom 
-----	----	-----	------	-----	-----	------	------	-------	-----	----- 
00:00	54.7	54.7	54.7	69	44.7	0	1	112	0.00	30.100 
00:05	54.4	54.4	54.4	69	44.4	0	2	112	0.00	30.097 
00:10	54.1	54.1	54.1	70	44.5	0	2	112	0.00	30.094 
00:15	53.9	53.9	53.9	70	44.3	0	2	112	0.00	30.099 
00:20	53.6	53.6	53.6	71	44.4	0	0	---	0.00	30.101 
00:25	53.3	53.3	53.3	72	44.5	0	0	---	0.00	30.103 
00:30	53.1	53.1	53.1	73	44.7	0	1	112	0.00	30.103 
00:35	52.8	52.8	52.8	73	44.4	0	0	---	0.00	30.105 
00:40	52.3	52.3	52.3	74	44.3	0	0	---	0.00	30.105 
00:45	52.0	52.0	52.0	75	44.3	0	0	---	0.00	30.106 
00:50	51.7	51.7	51.7	76	44.4	0	0	---	0.00	30.105 
00:55	51.4	51.4	51.4	77	44.4	0	0	---	0.00	30.104 
01:00	51.1	51.1	51.1	77	44.1	0	0	---	0.00	30.103 
01:05	50.8	50.8	50.8	77	43.9	0	0	---	0.00	30.103 
01:10	50.5	50.5	50.5	78	43.9	0	0	---	0.00	30.103 
01:15	50.1	50.1	50.1	79	43.8	0	0	---	0.00	30.102 
01:20	49.8	49.8	49.8	80	43.9	0	0	---	0.00	30.100 
01:25	49.4	49.4	49.4	81	43.8	0	0	---	0.00	30.101 
01:30	49.1	49.1	49.1	82	43.8	0	0	---	0.00	30.101 
01:35	48.8	48.8	48.8	83	43.9	0	0	---	0.00	30.104 
01:40	48.5	48.5	48.5	83	43.6	0	0	---	0.00	30.103 
01:45	48.2	48.2	48.2	84	43.6	0	0	---	0.00	30.102 
01:50	47.9	47.9	47.9	84	43.3	0	0	---	0.00	30.103 
01:55	47.6	47.6	47.6	85	43.3	0	0	---	0.00	30.101 
02:00	47.1	47.1	47.1	85	42.8	0	0	---	0.00	30.097 
02:05	46.8	46.8	46.8	86	42.8	0	0	---	0.00	30.095 
02:10	46.5	46.5	46.5	86	42.5	0	0	---	0.00	30.096 
02:15	46.2	46.2	46.2	87	42.5	0	0	---	0.00	30.098 
02:20	46.1	46.1	46.1	88	42.7	0	0	---	0.00	30.102 
02:25	45.8	45.8	45.8	88	42.5	0	0	---	0.00	30.099 
02:30	45.5	45.5	45.5	89	42.4	0	0	---	0.00	30.105 
02:35	45.2	45.2	45.2	89	42.2	0	0	---	0.00	30.108 
02:40	45.1	45.1	45.1	89	42.1	0	0	---	0.00	30.109 
02:45	44.8	44.8	44.8	90	42.0	0	0	---	0.00	30.110 
02:50	44.6	44.6	44.6	90	41.9	0	0	---	0.00	30.111 
02:55	44.5	44.5	44.5	90	41.8	0	0	---	0.00	30.109 
03:00	44.3	44.3	44.3	91	41.8	0	0	---	0.00	30.111 
03:05	44.2	44.2	44.2	91	41.7	0	0	---	0.00	30.113 
03:10	44.1	44.1	44.1	91	41.6	0	0	---	0.00	30.113 
03:15	43.9	43.9	43.9	91	41.4	0	0	---	0.00	30.114 
03:20	43.8	43.8	43.8	92	41.6	0	0	---	0.00	30.114 
03:25	43.6	43.6	43.6	92	41.4	0	0	---	0.00	30.113 
03:30	43.5	43.5	43.5	92	41.3	0	0	---	0.00	30.112 
03:35	43.3	43.3	43.3	92	41.1	0	0	---	0.00	30.111 
03:40	43.2	43.2	43.2	92	41.0	0	0	---	0.00	30.112 
03:45	43.2	43.2	43.2	92	41.0	0	0	---	0.00	30.115 
03:50	43.1	43.1	43.1	92	40.9	0	0	---	0.00	30.117 
03:55	42.9	42.9	42.9	92	40.7	0	0	---	0.00	30.121 
04:00	42.8	42.8	42.8	93	40.9	0	0	---	0.00	30.124 
04:05	42.8	42.8	42.8	93	40.9	0	0	---	0.00	30.126 
04:10	42.5	42.5	42.5	93	40.6	0	0	---	0.00	30.125 
04:15	42.3	42.3	42.3	93	40.4	0	0	---	0.00	30.125 
04:20	42.3	42.3	42.3	93	40.4	0	0	---	0.00	30.121 
04:25	42.2	42.2	42.2	93	40.3	0	0	---	0.00	30.118 
04:30	42.1	42.1	42.1	93	40.2	0	0	---	0.00	30.115 
04:35	42.2	42.2	42.2	93	40.3	0	0	---	0.00	30.117 
04:40	42.2	42.2	42.2	94	40.6	0	0	---	0.00	30.115 
04:45	42.5	42.5	42.5	94	40.9	0	0	---	0.00	30.118 
04:50	42.8	42.8	42.8	94	41.2	0	0	---	0.00	30.123 
04:55	42.9	42.9	42.9	94	41.3	0	0	---	0.00	30.124 
05:00	42.9	42.9	42.9	94	41.3	0	0	---	0.00	30.125 
05:05	43.1	43.1	43.1	94	41.5	0	0	---	0.00	30.126 
05:10	43.2	43.2	43.2	95	41.9	0	0	---	0.00	30.127 
05:15	43.3	43.3	43.3	95	42.0	0	0	---	0.00	30.127 
05:20	43.3	43.3	43.3	95	42.0	0	0	---	0.00	30.128 
05:25	43.5	43.5	43.5	95	42.2	0	1	112	0.00	30.126 
05:30	43.6	43.6	43.6	95	42.3	0	0	---	0.00	30.127 
05:35	43.8	43.8	43.8	95	42.5	0	1	112	0.00	30.126 
05:40	43.9	43.9	43.9	95	42.6	0	1	112	0.00	30.127 
05:45	44.1	44.1	44.1	95	42.8	0	1	112	0.00	30.127 
05:50	44.2	44.2	44.2	95	42.9	0	0	---	0.00	30.132 
05:55	44.2	44.2	44.2	95	42.9	0	1	112	0.00	30.138 
06:00	44.5	44.5	44.5	95	43.2	0	1	112	0.00	30.140 
06:05	44.8	44.8	44.8	95	43.5	0	1	112	0.00	30.142 
06:10	44.9	44.9	44.9	94	43.3	0	0	---	0.00	30.143 
06:15	45.4	45.4	45.4	94	43.8	0	2	112	0.00	30.141 
06:20	46.1	46.1	46.1	94	44.5	0	2	112	0.00	30.146 
06:25	47.1	47.1	47.1	92	44.9	0	1	112	0.00	30.145 
06:30	48.0	48.0	48.0	88	44.6	0	1	112	0.00	30.145 
06:35	49.1	49.1	49.1	85	44.8	0	2	112	0.00	30.146 
06:40	49.8	49.8	49.8	81	44.2	1	4	112	0.00	30.150 
06:45	50.7	50.7	50.7	79	44.4	0	4	112	0.00	30.152 
06:50	51.1	51.1	51.1	77	44.1	1	4	112	0.00	30.149 
06:55	51.7	51.7	51.7	77	44.7	0	1	112	0.00	30.151 
07:00	52.5	52.5	52.5	74	44.5	0	2	112	0.00	30.150 
07:05	52.9	52.9	52.9	72	44.1	1	3	112	0.00	30.149 
07:10	53.1	53.1	53.1	73	44.7	1	3	112	0.00	30.150 
07:15	53.5	53.5	53.5	71	44.3	1	3	112	0.00	30.151 
07:20	54.1	54.1	54.1	71	44.9	0	1	112	0.00	30.151 
07:25	54.7	54.7	54.7	70	45.1	0	2	112	0.00	30.149 
07:30	55.4	55.4	55.4	68	45.0	0	2	112	0.00	30.153 
07:35	55.9	55.9	55.9	67	45.1	1	2	112	0.00	30.154 
07:40	56.2	56.2	56.2	67	45.4	0	1	112	0.00	30.152 
07:45	56.5	56.5	56.5	68	46.1	0	1	112	0.00	30.162 
07:50	57.0	57.0	57.0	66	45.8	0	2	112	0.00	30.162 
07:55	57.6	57.6	57.6	65	45.9	0	2	112	0.00	30.163 
08:00	58.1	58.1	58.1	64	46.0	0	1	112	0.00	30.167 
08:05	58.7	58.7	58.7	58	44.0	1	3	112	0.00	30.169 
08:10	58.9	58.9	58.9	59	44.6	1	3	112	0.00	30.168 
08:15	58.9	58.9	58.9	58	44.1	1	3	90	0.00	30.168 
08:20	59.2	59.2	59.2	58	44.4	1	3	135	0.00	30.170 
08:25	59.2	59.2	59.2	55	43.0	2	6	112	0.00	30.172 
08:30	59.0	59.0	59.0	54	42.4	2	5	90	0.00	30.175 
08:35	59.2	59.2	59.2	55	43.0	2	5	90	0.00	30.177 
08:40	59.6	59.6	59.6	53	42.4	2	7	112	0.00	30.174 
08:45	59.8	59.8	59.8	54	43.1	3	7	112	0.00	30.175 
08:50	59.8	59.8	59.8	53	42.6	3	7	112	0.00	30.174 
08:55	60.1	60.1	60.1	54	43.4	2	5	90	0.00	30.170 
09:00	60.4	60.4	60.4	53	43.2	2	5	112	0.00	30.164 
09:05	60.5	60.5	60.5	52	42.8	2	6	90	0.00	30.165 
09:10	60.9	60.9	60.9	56	45.1	2	7	90	0.00	30.167 
09:15	61.0	61.0	61.0	53	43.7	3	7	90	0.00	30.171 
09:20	61.2	61.2	61.2	51	42.9	2	5	112	0.00	30.176 
09:25	61.8	61.8	61.8	53	44.5	1	3	112	0.00	30.177 
09:30	62.0	62.0	62.0	52	44.2	2	7	112	0.00	30.178 
09:35	62.3	62.3	62.3	52	44.4	1	6	112	0.00	30.177 
09:40	62.9	62.9	62.9	52	45.0	1	4	90	0.00	30.178 
09:45	63.4	63.4	63.4	51	45.0	1	6	68	0.00	30.178 
09:50	62.9	62.9	62.9	47	42.4	3	11	112	0.00	30.175 
09:55	62.9	62.9	62.9	50	44.0	2	4	90	0.00	30.169 
10:00	63.4	63.4	63.4	51	45.0	1	5	112	0.00	30.173 
10:05	63.7	63.7	63.7	46	42.5	2	6	90	0.00	30.163 
10:10	63.4	63.4	63.4	50	44.4	1	6	292	0.00	30.161 
10:15	63.9	63.9	63.9	48	43.8	1	5	90	0.00	30.158 
10:20	64.3	64.3	64.3	48	44.2	2	5	112	0.00	30.157 
10:25	64.7	64.7	64.7	51	46.1	1	5	90	0.00	30.151 
10:30	64.5	64.5	64.5	45	42.7	3	9	112	0.00	30.157 
10:35	64.3	64.3	64.3	46	43.1	1	4	68	0.00	30.158 
10:40	64.3	64.3	64.3	48	44.2	1	4	45	0.00	30.160 
10:45	64.3	64.3	64.3	44	41.9	3	10	112	0.00	30.157 
10:50	65.0	65.0	65.0	49	45.4	1	5	112	0.00	30.153 
10:55	65.6	65.6	65.6	49	45.9	1	5	112	0.00	30.154 
11:00	65.5	65.5	65.5	40	40.5	2	9	90	0.00	30.152 
11:05	65.6	65.6	65.6	43	42.5	2	6	90	0.00	30.150 
11:10	65.3	65.3	65.3	43	42.2	3	9	90	0.00	30.154 
11:15	65.2	65.2	65.2	43	42.1	2	7	112	0.00	30.155 
11:20	65.3	65.3	65.3	43	42.2	1	5	112	0.00	30.154 
11:25	65.6	65.6	65.6	45	43.7	1	5	112	0.00	30.149 
11:30	65.5	65.5	65.5	43	42.4	1	3	90	0.00	30.149 
11:35	65.3	65.3	65.3	49	45.6	1	4	90	0.00	30.150 
11:40	65.5	65.5	65.5	44	43.0	0	1	90	0.00	30.147 
11:45	66.0	66.0	66.0	40	41.0	1	5	90	0.00	30.149 
11:50	66.6	66.6	66.6	41	42.2	1	4	112	0.00	30.148 
11:55	67.3	67.3	67.3	40	42.1	1	4	112	0.00	30.145 
12:00	67.4	67.4	67.4	41	42.9	2	5	112	0.00	30.149 
12:05	67.3	67.3	67.3	41	42.8	2	7	112	0.00	30.162 
12:10	67.1	67.1	67.1	40	42.0	0	3	180	0.00	30.161 
12:15	67.3	67.3	67.3	43	44.0	1	7	112	0.00	30.158 
12:20	67.8	67.8	67.8	46	46.3	1	5	90	0.00	30.159 
12:25	67.8	67.8	67.8	41	43.2	1	3	292	0.00	30.159 
12:30	67.9	67.9	67.9	42	44.0	0	2	292	0.00	30.155 
12:35	68.4	68.4	68.4	44	45.6	0	1	292	0.00	30.148 
12:40	68.4	68.4	68.4	44	45.6	2	7	112	0.00	30.149 
12:45	68.3	68.3	68.3	39	42.4	3	12	112	0.00	30.149 
12:50	67.8	67.8	67.8	39	41.9	2	4	112	0.00	30.148 
12:55	67.8	67.8	67.8	43	44.5	1	4	112	0.00	30.148 
13:00	68.4	68.4	68.4	41	43.8	1	3	112	0.00	30.146 
13:05	68.4	68.4	68.4	36	40.4	1	6	112	0.00	30.149 
13:10	68.6	68.6	68.6	35	39.8	1	3	68	0.00	30.143 
13:15	68.8	68.8	68.8	39	42.8	2	6	112	0.00	30.142 
13:20	68.6	68.6	68.6	38	42.0	3	7	112	0.00	30.143 
13:25	68.6	68.6	68.6	41	44.0	1	3	112	0.00	30.142 
13:30	69.1	69.1	69.1	38	42.4	2	4	112	0.00	30.140 
13:35	69.1	69.1	69.1	36	41.0	1	4	112	0.00	30.134 
13:40	68.9	68.9	68.9	38	42.2	2	6	112	0.00	30.131 
13:45	68.6	68.6	68.6	35	39.8	3	6	90	0.00	30.131 
13:50	68.3	68.3	68.3	40	43.0	3	10	112	0.00	30.135 
13:55	68.4	68.4	68.4	38	41.8	1	4	45	0.00	30.134 
14:00	68.8	68.8	68.8	35	40.0	1	4	112	0.00	30.133 
14:05	68.9	68.9	68.9	36	40.8	2	6	112	0.00	30.137 
14:10	69.4	69.4	69.4	41	44.7	1	4	158	0.00	30.137 
14:15	69.4	69.4	69.4	39	43.4	1	6	112	0.00	30.138 
14:20	69.4	69.4	69.4	38	42.7	0	2	315	0.00	30.139 
14:25	69.9	69.9	69.9	38	43.1	0	2	112	0.00	30.136 
14:30	70.3	70.3	70.3	35	41.3	1	4	135	0.00	30.135 
14:35	70.3	70.3	70.3	38	43.5	0	3	135	0.00	30.134 
14:40	70.3	70.3	70.3	38	43.5	1	6	270	0.00	30.131 
14:45	70.3	70.3	70.3	35	41.3	1	5	112	0.00	30.127 
14:50	70.6	70.6	70.6	39	44.4	0	2	68	0.00	30.125 
14:55	70.6	70.6	70.6	36	42.3	0	3	315	0.00	30.127 
15:00	70.8	70.8	70.8	35	41.8	1	3	315	0.00	30.123 
15:05	70.6	70.6	70.6	33	40.1	2	7	90	0.00	30.122 
15:10	70.4	70.4	70.4	35	41.4	1	6	112	0.00	30.126 
15:15	70.4	70.4	70.4	34	40.7	1	4	112	0.00	30.124 
15:20	70.6	70.6	70.6	38	43.7	1	4	112	0.00	30.124 
15:25	71.3	71.3	71.3	36	43.0	0	1	112	0.00	30.121 
15:30	71.6	71.6	71.6	32	40.2	1	4	158	0.00	30.120 
15:35	71.6	71.6	71.6	32	40.2	1	3	158	0.00	30.121 
15:40	71.5	71.5	71.5	32	40.1	2	5	90	0.00	30.120 
15:45	71.6	71.6	71.6	36	43.2	0	3	135	0.00	30.120 
15:50	71.6	71.6	71.6	34	41.7	1	4	112	0.00	30.121 
15:55	71.8	71.8	71.8	35	42.7	1	5	112	0.00	30.121 
16:00	71.8	71.8	71.8	34	41.9	1	3	112	0.00	30.120 
16:05	72.0	72.0	72.0	34	42.1	1	2	112	0.00	30.120 
16:10	71.8	71.8	71.8	32	40.3	1	3	112	0.00	30.119 
16:15	71.3	71.3	71.3	35	42.2	1	4	292	0.00	30.118 
16:20	71.3	71.3	71.3	35	42.2	1	3	90	0.00	30.119 
16:25	70.9	70.9	70.9	34	41.1	0	3	112	0.00	30.120 
16:30	70.8	70.8	70.8	35	41.8	0	2	112	0.00	30.120 
16:35	70.6	70.6	70.6	33	40.1	0	1	112	0.00	30.120 
16:40	70.3	70.3	70.3	32	39.0	0	1	112	0.00	30.122 
16:45	70.4	70.4	70.4	33	39.9	0	3	112	0.00	30.121 
16:50	70.1	70.1	70.1	34	40.4	1	3	112	0.00	30.120 
16:55	69.9	69.9	69.9	35	41.0	0	2	112	0.00	30.118 
17:00	69.8	69.8	69.8	33	39.4	1	2	112	0.00	30.117 
17:05	69.6	69.6	69.6	32	38.4	1	2	135	0.00	30.112 
17:10	69.6	69.6	69.6	35	40.7	1	2	135	0.00	30.107 
17:15	69.4	69.4	69.4	36	41.3	1	3	112	0.00	30.108 
17:20	69.1	69.1	69.1	34	39.5	0	3	112	0.00	30.105 
17:25	68.9	68.9	68.9	38	42.2	0	2	112	0.00	30.103 
17:30	68.8	68.8	68.8	39	42.8	1	3	112	0.00	30.100 
17:35	68.6	68.6	68.6	37	41.3	1	4	90	0.00	30.101 
17:40	68.6	68.6	68.6	37	41.3	0	2	90	0.00	30.100 
17:45	68.6	68.6	68.6	37	41.3	1	2	112	0.00	30.094 
17:50	68.6	68.6	68.6	34	39.1	0	2	112	0.00	30.099 
17:55	68.6	68.6	68.6	38	42.0	0	1	112	0.00	30.097 
18:00	68.4	68.4	68.4	35	39.7	1	4	112	0.00	30.097 
18:05	68.3	68.3	68.3	39	42.4	0	1	112	0.00	30.086 
18:10	68.1	68.1	68.1	37	40.8	0	1	112	0.00	30.089 
18:15	67.9	67.9	67.9	35	39.2	0	1	112	0.00	30.088 
18:20	67.8	67.8	67.8	38	41.3	1	2	112	0.00	30.085 
18:25	67.8	67.8	67.8	40	42.6	0	1	112	0.00	30.088 
18:30	67.6	67.6	67.6	40	42.4	0	2	112	0.00	30.091 
18:35	67.6	67.6	67.6	37	40.4	0	2	112	0.00	30.090 
18:40	67.4	67.4	67.4	41	42.9	0	0	---	0.00	30.091 
18:45	67.3	67.3	67.3	38	40.8	0	0	---	0.00	30.086 
18:50	67.1	67.1	67.1	41	42.6	0	1	112	0.00	30.085 
18:55	66.9	66.9	66.9	39	41.1	0	0	---	0.00	30.086 
19:00	66.8	66.8	66.8	40	41.7	0	0	---	0.00	30.086 
19:05	66.4	66.4	66.4	40	41.3	0	0	---	0.00	30.081 
19:10	66.3	66.3	66.3	40	41.2	0	0	---	0.00	30.079 
19:15	66.0	66.0	66.0	42	42.2	0	0	---	0.00	30.076 
19:20	65.6	65.6	65.6	42	41.9	0	0	---	0.00	30.075 
19:25	65.3	65.3	65.3	43	42.2	0	0	---	0.00	30.075 
19:30	65.2	65.2	65.2	43	42.1	0	0	---	0.00	30.074 
19:35	64.8	64.8	64.8	44	42.4	0	0	---	0.00	30.070 
19:40	64.3	64.3	64.3	47	43.6	0	0	---	0.00	30.067 
19:45	63.9	63.9	63.9	47	43.3	0	0	---	0.00	30.065 
19:50	63.2	63.2	63.2	48	43.2	0	0	---	0.00	30.065 
19:55	62.7	62.7	62.7	49	43.3	0	0	---	0.00	30.065 
20:00	62.3	62.3	62.3	51	43.9	0	0	---	0.00	30.066 
20:05	61.6	61.6	61.6	52	43.8	0	0	---	0.00	30.063 
20:10	61.2	61.2	61.2	53	43.9	0	0	---	0.00	30.064 
20:15	60.9	60.9	60.9	54	44.1	0	0	---	0.00	30.059 
20:20	60.2	60.2	60.2	56	44.4	0	0	---	0.00	30.058 
20:25	59.8	59.8	59.8	57	44.5	0	0	---	0.00	30.054 
20:30	59.3	59.3	59.3	58	44.5	0	0	---	0.00	30.052 
20:35	58.9	58.9	58.9	60	45.0	0	0	---	0.00	30.055 
20:40	58.4	58.4	58.4	62	45.4	0	0	---	0.00	30.053 
20:45	58.0	58.0	58.0	63	45.5	0	0	---	0.00	30.052 
20:50	57.6	57.6	57.6	63	45.1	0	0	---	0.00	30.053 
20:55	57.2	57.2	57.2	64	45.1	0	0	---	0.00	30.055 
21:00	56.9	56.9	56.9	66	45.7	0	0	---	0.00	30.056 
21:05	56.6	56.6	56.6	67	45.8	0	0	---	0.00	30.056 
21:10	56.5	56.5	56.5	68	46.1	0	0	---	0.00	30.054 
21:15	56.2	56.2	56.2	68	45.8	0	0	---	0.00	30.055 
21:20	55.9	55.9	55.9	69	45.9	0	0	---	0.00	30.055 
21:25	55.6	55.6	55.6	69	45.6	0	0	---	0.00	30.059 
21:30	55.3	55.3	55.3	71	46.1	0	0	---	0.00	30.061 
21:35	55.1	55.1	55.1	71	45.9	0	0	---	0.00	30.062 
21:40	54.8	54.8	54.8	72	45.9	0	0	---	0.00	30.060 
21:45	54.5	54.5	54.5	73	46.0	0	0	---	0.00	30.057 
21:50	54.2	54.2	54.2	73	45.7	0	0	---	0.00	30.058 
21:55	53.9	53.9	53.9	74	45.8	0	0	---	0.00	30.057 
22:00	53.6	53.6	53.6	75	45.9	0	0	---	0.00	30.058 
22:05	53.5	53.5	53.5	76	46.1	0	0	---	0.00	30.060 
22:10	53.2	53.2	53.2	77	46.2	0	0	---	0.00	30.066 
22:15	52.9	52.9	52.9	77	45.9	0	0	---	0.00	30.067 
22:20	52.8	52.8	52.8	77	45.8	0	0	---	0.00	30.067 
22:25	52.5	52.5	52.5	78	45.8	0	0	---	0.00	30.066 
22:30	52.3	52.3	52.3	78	45.6	0	0	---	0.00	30.065 
22:35	52.2	52.2	52.2	78	45.5	0	2	112	0.00	30.063 
22:40	52.5	52.5	52.5	77	45.5	0	2	112	0.00	30.066 
22:45	53.6	53.6	53.6	71	44.4	1	3	112	0.00	30.068 
22:50	54.8	54.8	54.8	67	44.1	0	1	90	0.00	30.067 
22:55	55.6	55.6	55.6	64	43.6	0	2	90	0.00	30.067 
23:00	56.0	56.0	56.0	63	43.6	0	1	90	0.00	30.068 
23:05	56.2	56.2	56.2	63	43.8	0	1	90	0.00	30.068 
23:10	56.2	56.2	56.2	63	43.8	0	2	90	0.00	30.070 
23:15	56.0	56.0	56.0	63	43.6	0	2	90	0.00	30.072 
23:20	55.9	55.9	55.9	64	43.9	0	1	90	0.00	30.077 
23:25	55.7	55.7	55.7	65	44.1	0	1	90	0.00	30.077 
23:30	55.3	55.3	55.3	65	43.7	0	2	90	0.00	30.075 
23:35	55.1	55.1	55.1	66	43.9	0	1	90	0.00	30.076 
23:40	54.8	54.8	54.8	67	44.1	0	1	90	0.00	30.077 
23:45	54.5	54.5	54.5	68	44.2	0	1	90	0.00	30.076 
23:50	54.2	54.2	54.2	68	43.9	0	1	90	0.00	30.074 
23:55	54.1	54.1	54.1	69	44.2	0	2	90	0.00	30.073 

CoCoRaHS
IN-AL-39
A2 Web Hosting
Creative Commons License
GoDaddy
Look for:

loaded 2017-10-17 22:13:37 • last modified 2010-11-18 10:43:29
Privacy PolicyDisclaimer
• wx.awcolley.com is powered by PmWiki v.2002016 •
• all content (unless otherwise noted) © 2017 A W Colley